ADDS TAF Board (Experimental) INFO

IDs: Format: Expanded Condensed

Updated at: 1214 UTC 01 Oct 2014

KEWR - Newark Intl, NJ, US

Issued at 1129 UTC 01 Oct 2014
Time1210Z01/13Z01/14Z01/15Z01/16Z01/17Z01/18Z01/19Z01/20Z01/21Z01/22Z01/23Z02/00Z02/01Z
TypeOBSPRVLPRVLPRVLPRVLPRVLPRVLPRVLPRVLPRVLPRVLPRVLPRVLPRVL
VIS5>6>6>6>6>6>6>6>6>6>6>6>6>6
CIG1415151515151550505050505050
CoverOVCOVCOVCOVCOVCOVCOVCOVCOVCOVCOVCOVCOVCOVC
FltCatMVFRMVFRMVFRMVFRMVFRMVFRMVFRVFRVFRVFRVFRVFRVFRVFR
WX-DZ BR--------------------------
WDir1020202020202020202020202020
WSpd1288888810101010101010
WGst----------------------------
R04/22
XWnd31111111111111
HWnd1288888810101010101010
R11/29
XWnd1288888810101010101010
HWnd12222223333333
Raw TAF
KEWR 011129Z 0112/0218 02008KT P6SM OVC015
  FM011900 02010KT P6SM SCT015 OVC050
  FM020200 01008KT P6SM OVC012
  FM021600 02010KT P6SM OVC020


Raw METAR
KEWR 011210Z 01012KT 5SM -DZ BR BKN014 OVC030 16/14 A3002 RMK AO2 RAE1156DZB09 CIG 013V017 P0000
KEWR 011151Z 02009KT 10SM -RA BKN015 OVC023 17/14 A3002 RMK AO2 RAB43 SLP164 CIG 014V017 P0000 60000 T01670139 10172 20167 53009

TAF Board Legend

Hazard VFR MVFR IFR LIFR
Visibility (sm) >5 3≤X≤5 1≤X<3 <1
Ceiling (100 ft) >30 10≤X≤30 5≤X<10 <5
Wind Speed (kt) <10 10≤X<20 20≤X<30 ≥30
Wind Gust (kt) <15 15≤X<25 25≤X<35 ≥35
Weather No Wx Reported VCTS,-TS,-FZRA TS,FZRA +TS,+FZRA


Page loaded:  12:14 UTC  |   05:14 AM Pacific  |   06:14 AM Mountain  |   07:14 AM Central  |   08:14 AM Eastern

 

ADVISORIES

FORECASTS

FORECASTS

OBSERVATIONS

USER TOOLS

ABOUT US